Roncesvalles Navarra

latitud = 43° 00' 31''N | longitud = 001° 19' 32''W
940 metros sobre el nivel del mar | datos mensuales

Fecha, hora, temperatura, viento dirección y velocidad, humedad y presión.

  • 21-01-2018 02:00:00 | 7.80°C | Norte |9.00 km/h | 100.00% | 0.00 hPa
  • 21-01-2018 01:00:00 | 7.60°C | Norte |5.00 km/h | 100.00% | 0.00 hPa
  • 21-01-2018 00:00:00 | 7.60°C | Norte |5.00 km/h | 99.00% | 0.00 hPa
  • 20-01-2018 23:00:00 | 7.60°C | Norte |5.00 km/h | 99.00% | 0.00 hPa
  • 20-01-2018 22:00:00 | 7.50°C | Noroeste |5.00 km/h | 98.00% | 0.00 hPa
  • 20-01-2018 21:00:00 | 7.30°C | Sudoeste |5.00 km/h | 100.00% | 0.00 hPa
  • 20-01-2018 20:00:00 | 7.50°C | Noroeste |5.00 km/h | 99.00% | 0.00 hPa
  • 20-01-2018 19:00:00 | 7.50°C | Oeste |4.00 km/h | 99.00% | 0.00 hPa
  • 20-01-2018 18:00:00 | 7.60°C | Norte |7.00 km/h | 100.00% | 0.00 hPa
  • 20-01-2018 17:00:00 | 6.70°C | Nordeste |3.00 km/h | 100.00% | 0.00 hPa
  • 20-01-2018 16:00:00 | 4.90°C | Calma |0.00 km/h | 100.00% | 0.00 hPa
  • 20-01-2018 15:00:00 | 4.70°C | Calma |0.00 km/h | 100.00% | 0.00 hPa
  • 20-01-2018 14:00:00 | 4.60°C | Calma |0.00 km/h | 99.00% | 0.00 hPa
  • 20-01-2018 13:00:00 | 5.00°C | Noroeste |3.00 km/h | 96.00% | 0.00 hPa
  • 20-01-2018 12:00:00 | 5.30°C | Calma |0.00 km/h | 88.00% | 0.00 hPa
  • 20-01-2018 11:00:00 | 4.40°C | Calma |0.00 km/h | 94.00% | 0.00 hPa
  • 20-01-2018 10:00:00 | 3.00°C | Calma |0.00 km/h | 100.00% | 0.00 hPa
  • 20-01-2018 09:00:00 | 2.50°C | Norte |3.00 km/h | 100.00% | 0.00 hPa
  • 20-01-2018 08:00:00 | 2.20°C | Norte |2.00 km/h | 100.00% | 0.00 hPa
  • 20-01-2018 07:00:00 | 1.90°C | Calma |0.00 km/h | 100.00% | 0.00 hPa
  • 20-01-2018 06:00:00 | 1.70°C | Norte |4.00 km/h | 100.00% | 0.00 hPa
  • 20-01-2018 05:00:00 | 2.10°C | Calma |0.00 km/h | 100.00% | 0.00 hPa
  • 20-01-2018 04:00:00 | 2.90°C | Sur |2.00 km/h | 97.00% | 0.00 hPa
  • 20-01-2018 03:00:00 | 3.00°C | Sur |2.00 km/h | 98.00% | 0.00 hPa